sensor_id;sensor_type;location;lat;lon;timestamp;temperature;humidity
40600;DHT22;26309;50.924;4.754;2024-03-29T00:02:05;10.90;99.90
40600;DHT22;26309;50.924;4.754;2024-03-29T00:04:30;10.90;99.90
40600;DHT22;26309;50.924;4.754;2024-03-29T00:06:56;10.80;99.90
40600;DHT22;26309;50.924;4.754;2024-03-29T00:09:22;10.80;99.90
40600;DHT22;26309;50.924;4.754;2024-03-29T00:11:48;10.70;99.90
40600;DHT22;26309;50.924;4.754;2024-03-29T00:14:14;10.70;99.90
40600;DHT22;26309;50.924;4.754;2024-03-29T00:16:40;10.70;99.90
40600;DHT22;26309;50.924;4.754;2024-03-29T00:19:06;10.70;99.90
40600;DHT22;26309;50.924;4.754;2024-03-29T00:21:31;10.60;99.90
40600;DHT22;26309;50.924;4.754;2024-03-29T00:23:59;10.40;99.90
40600;DHT22;26309;50.924;4.754;2024-03-29T00:26:25;10.60;99.90
40600;DHT22;26309;50.924;4.754;2024-03-29T00:28:50;10.70;99.90
40600;DHT22;26309;50.924;4.754;2024-03-29T00:31:16;10.70;99.90
40600;DHT22;26309;50.924;4.754;2024-03-29T00:33:42;10.70;99.90
40600;DHT22;26309;50.924;4.754;2024-03-29T00:36:08;10.80;99.90
40600;DHT22;26309;50.924;4.754;2024-03-29T00:38:33;10.90;99.90
40600;DHT22;26309;50.924;4.754;2024-03-29T00:40:59;10.90;99.90
40600;DHT22;26309;50.924;4.754;2024-03-29T00:43:25;10.90;99.90
40600;DHT22;26309;50.924;4.754;2024-03-29T00:45:51;10.90;99.90
40600;DHT22;26309;50.924;4.754;2024-03-29T00:48:18;11.00;99.90
40600;DHT22;26309;50.924;4.754;2024-03-29T00:50:45;11.00;99.90
40600;DHT22;26309;50.924;4.754;2024-03-29T00:53:11;11.10;99.90
40600;DHT22;26309;50.924;4.754;2024-03-29T00:55:37;11.30;99.90
40600;DHT22;26309;50.924;4.754;2024-03-29T00:58:03;11.20;99.90
40600;DHT22;26309;50.924;4.754;2024-03-29T01:00:29;11.20;99.90
40600;DHT22;26309;50.924;4.754;2024-03-29T01:02:55;11.20;99.90
40600;DHT22;26309;50.924;4.754;2024-03-29T01:05:20;11.30;99.90
40600;DHT22;26309;50.924;4.754;2024-03-29T01:07:46;11.30;99.90
40600;DHT22;26309;50.924;4.754;2024-03-29T01:10:12;11.30;99.90
40600;DHT22;26309;50.924;4.754;2024-03-29T01:12:38;11.30;99.90
40600;DHT22;26309;50.924;4.754;2024-03-29T01:15:05;11.30;99.90
40600;DHT22;26309;50.924;4.754;2024-03-29T01:17:32;11.30;99.90
40600;DHT22;26309;50.924;4.754;2024-03-29T01:19:58;11.30;99.90
40600;DHT22;26309;50.924;4.754;2024-03-29T01:22:24;11.40;99.90
40600;DHT22;26309;50.924;4.754;2024-03-29T01:24:49;11.40;99.90
40600;DHT22;26309;50.924;4.754;2024-03-29T01:27:15;11.40;99.90
40600;DHT22;26309;50.924;4.754;2024-03-29T01:29:41;11.50;99.90
40600;DHT22;26309;50.924;4.754;2024-03-29T01:32:07;11.40;99.90
40600;DHT22;26309;50.924;4.754;2024-03-29T01:34:33;11.40;99.90
40600;DHT22;26309;50.924;4.754;2024-03-29T01:36:59;11.40;99.90
40600;DHT22;26309;50.924;4.754;2024-03-29T01:39:25;11.40;99.90
40600;DHT22;26309;50.924;4.754;2024-03-29T01:41:57;11.50;99.90
40600;DHT22;26309;50.924;4.754;2024-03-29T01:44:22;11.50;99.90
40600;DHT22;26309;50.924;4.754;2024-03-29T01:46:49;11.50;99.90
40600;DHT22;26309;50.924;4.754;2024-03-29T01:49:15;11.50;99.90
40600;DHT22;26309;50.924;4.754;2024-03-29T01:51:42;11.30;99.90
40600;DHT22;26309;50.924;4.754;2024-03-29T01:54:09;11.20;99.90
40600;DHT22;26309;50.924;4.754;2024-03-29T01:56:37;11.00;99.90
40600;DHT22;26309;50.924;4.754;2024-03-29T01:59:08;11.00;99.90
40600;DHT22;26309;50.924;4.754;2024-03-29T02:01:38;11.00;99.90
40600;DHT22;26309;50.924;4.754;2024-03-29T02:04:04;11.10;99.90
40600;DHT22;26309;50.924;4.754;2024-03-29T02:06:30;11.10;99.90
40600;DHT22;26309;50.924;4.754;2024-03-29T02:08:56;11.10;99.90
40600;DHT22;26309;50.924;4.754;2024-03-29T02:11:22;11.00;99.90
40600;DHT22;26309;50.924;4.754;2024-03-29T02:13:51;10.90;99.90
40600;DHT22;26309;50.924;4.754;2024-03-29T02:16:17;10.90;99.90
40600;DHT22;26309;50.924;4.754;2024-03-29T02:18:44;10.80;99.90
40600;DHT22;26309;50.924;4.754;2024-03-29T02:21:10;10.90;99.90
40600;DHT22;26309;50.924;4.754;2024-03-29T02:23:37;10.80;99.90
40600;DHT22;26309;50.924;4.754;2024-03-29T02:26:06;10.80;99.90
40600;DHT22;26309;50.924;4.754;2024-03-29T02:28:32;10.80;99.90
40600;DHT22;26309;50.924;4.754;2024-03-29T02:30:57;10.80;99.90
40600;DHT22;26309;50.924;4.754;2024-03-29T02:33:23;10.80;99.90
40600;DHT22;26309;50.924;4.754;2024-03-29T02:35:49;10.70;99.90
40600;DHT22;26309;50.924;4.754;2024-03-29T02:38:15;10.70;99.90
40600;DHT22;26309;50.924;4.754;2024-03-29T02:40:41;10.70;99.90
40600;DHT22;26309;50.924;4.754;2024-03-29T02:43:07;10.60;99.90
40600;DHT22;26309;50.924;4.754;2024-03-29T02:45:34;10.70;99.90
40600;DHT22;26309;50.924;4.754;2024-03-29T02:48:00;10.70;99.90
40600;DHT22;26309;50.924;4.754;2024-03-29T02:50:26;10.80;99.90
40600;DHT22;26309;50.924;4.754;2024-03-29T02:52:52;10.70;99.90
40600;DHT22;26309;50.924;4.754;2024-03-29T02:55:17;10.70;99.90
40600;DHT22;26309;50.924;4.754;2024-03-29T02:57:43;10.80;99.90
40600;DHT22;26309;50.924;4.754;2024-03-29T03:00:09;10.80;99.90
40600;DHT22;26309;50.924;4.754;2024-03-29T03:02:39;10.60;99.90
40600;DHT22;26309;50.924;4.754;2024-03-29T03:05:06;10.50;99.90
40600;DHT22;26309;50.924;4.754;2024-03-29T03:07:32;10.50;99.90
40600;DHT22;26309;50.924;4.754;2024-03-29T03:10:17;10.40;99.90
40600;DHT22;26309;50.924;4.754;2024-03-29T03:13:02;10.30;99.90
40600;DHT22;26309;50.924;4.754;2024-03-29T03:15:28;10.20;99.90
40600;DHT22;26309;50.924;4.754;2024-03-29T03:17:54;10.20;99.90
40600;DHT22;26309;50.924;4.754;2024-03-29T03:20:19;10.10;99.90
40600;DHT22;26309;50.924;4.754;2024-03-29T03:22:45;10.00;99.90
40600;DHT22;26309;50.924;4.754;2024-03-29T03:25:11;10.10;99.90
40600;DHT22;26309;50.924;4.754;2024-03-29T03:27:37;10.10;99.90
40600;DHT22;26309;50.924;4.754;2024-03-29T03:30:03;10.00;99.90
40600;DHT22;26309;50.924;4.754;2024-03-29T03:32:29;10.00;99.90
40600;DHT22;26309;50.924;4.754;2024-03-29T03:34:55;10.00;99.90
40600;DHT22;26309;50.924;4.754;2024-03-29T03:37:21;10.00;99.90
40600;DHT22;26309;50.924;4.754;2024-03-29T03:39:47;10.00;99.90
40600;DHT22;26309;50.924;4.754;2024-03-29T03:42:13;10.00;99.90
40600;DHT22;26309;50.924;4.754;2024-03-29T03:44:39;9.90;99.90
40600;DHT22;26309;50.924;4.754;2024-03-29T03:47:05;9.90;99.90
40600;DHT22;26309;50.924;4.754;2024-03-29T03:49:30;9.90;99.90
40600;DHT22;26309;50.924;4.754;2024-03-29T03:51:56;9.90;99.90
40600;DHT22;26309;50.924;4.754;2024-03-29T03:54:22;9.80;99.90
40600;DHT22;26309;50.924;4.754;2024-03-29T03:56:48;9.70;99.90
40600;DHT22;26309;50.924;4.754;2024-03-29T03:59:17;9.70;99.90
40600;DHT22;26309;50.924;4.754;2024-03-29T04:01:43;9.80;99.90
40600;DHT22;26309;50.924;4.754;2024-03-29T04:04:09;9.80;99.90
40600;DHT22;26309;50.924;4.754;2024-03-29T04:06:35;9.70;99.90
40600;DHT22;26309;50.924;4.754;2024-03-29T04:09:00;9.70;99.90
40600;DHT22;26309;50.924;4.754;2024-03-29T04:11:26;9.60;99.90
40600;DHT22;26309;50.924;4.754;2024-03-29T04:13:52;9.70;99.90
40600;DHT22;26309;50.924;4.754;2024-03-29T04:16:18;9.70;99.90
40600;DHT22;26309;50.924;4.754;2024-03-29T04:18:44;9.70;99.90
40600;DHT22;26309;50.924;4.754;2024-03-29T04:21:10;9.70;99.90
40600;DHT22;26309;50.924;4.754;2024-03-29T04:23:36;9.70;99.90
40600;DHT22;26309;50.924;4.754;2024-03-29T04:26:03;9.60;99.90
40600;DHT22;26309;50.924;4.754;2024-03-29T04:28:28;9.60;99.90
40600;DHT22;26309;50.924;4.754;2024-03-29T04:30:56;9.60;99.90
40600;DHT22;26309;50.924;4.754;2024-03-29T04:33:22;9.60;99.90
40600;DHT22;26309;50.924;4.754;2024-03-29T04:38:22;9.60;99.90
40600;DHT22;26309;50.924;4.754;2024-03-29T04:40:50;9.70;99.90
40600;DHT22;26309;50.924;4.754;2024-03-29T04:43:16;9.60;99.90
40600;DHT22;26309;50.924;4.754;2024-03-29T04:45:46;9.60;99.90
40600;DHT22;26309;50.924;4.754;2024-03-29T04:48:12;9.70;99.90
40600;DHT22;26309;50.924;4.754;2024-03-29T04:50:38;9.70;99.90
40600;DHT22;26309;50.924;4.754;2024-03-29T04:53:05;9.80;99.90
40600;DHT22;26309;50.924;4.754;2024-03-29T04:55:31;9.80;99.90
40600;DHT22;26309;50.924;4.754;2024-03-29T04:57:57;9.90;99.90
40600;DHT22;26309;50.924;4.754;2024-03-29T05:00:23;9.90;99.90
40600;DHT22;26309;50.924;4.754;2024-03-29T05:02:48;9.80;99.90
40600;DHT22;26309;50.924;4.754;2024-03-29T05:05:14;9.80;99.90
40600;DHT22;26309;50.924;4.754;2024-03-29T05:07:40;9.80;99.90
40600;DHT22;26309;50.924;4.754;2024-03-29T05:10:08;9.80;99.90
40600;DHT22;26309;50.924;4.754;2024-03-29T05:12:38;9.80;99.90
40600;DHT22;26309;50.924;4.754;2024-03-29T05:15:05;9.90;99.90
40600;DHT22;26309;50.924;4.754;2024-03-29T05:17:31;9.90;99.90
40600;DHT22;26309;50.924;4.754;2024-03-29T05:19:57;9.80;99.90
40600;DHT22;26309;50.924;4.754;2024-03-29T05:22:23;9.80;99.90
40600;DHT22;26309;50.924;4.754;2024-03-29T05:24:53;9.80;99.90
40600;DHT22;26309;50.924;4.754;2024-03-29T05:27:19;9.90;99.90
40600;DHT22;26309;50.924;4.754;2024-03-29T05:29:46;9.90;99.90
40600;DHT22;26309;50.924;4.754;2024-03-29T05:32:12;9.90;99.90
40600;DHT22;26309;50.924;4.754;2024-03-29T05:34:38;9.90;99.90
40600;DHT22;26309;50.924;4.754;2024-03-29T05:37:04;9.90;99.90
40600;DHT22;26309;50.924;4.754;2024-03-29T05:39:30;9.90;99.90
40600;DHT22;26309;50.924;4.754;2024-03-29T05:41:56;9.90;99.90
40600;DHT22;26309;50.924;4.754;2024-03-29T05:44:23;9.90;99.90
40600;DHT22;26309;50.924;4.754;2024-03-29T05:46:49;10.10;99.90
40600;DHT22;26309;50.924;4.754;2024-03-29T05:49:15;10.10;99.90
40600;DHT22;26309;50.924;4.754;2024-03-29T05:51:41;10.00;99.90
40600;DHT22;26309;50.924;4.754;2024-03-29T05:54:07;10.00;99.90
40600;DHT22;26309;50.924;4.754;2024-03-29T05:56:32;10.10;99.90
40600;DHT22;26309;50.924;4.754;2024-03-29T05:58:58;10.00;99.90
40600;DHT22;26309;50.924;4.754;2024-03-29T06:01:24;10.00;99.90
40600;DHT22;26309;50.924;4.754;2024-03-29T06:03:50;10.00;99.90
40600;DHT22;26309;50.924;4.754;2024-03-29T06:06:20;10.00;99.90
40600;DHT22;26309;50.924;4.754;2024-03-29T06:08:50;10.10;99.90
40600;DHT22;26309;50.924;4.754;2024-03-29T06:11:16;10.00;99.90
40600;DHT22;26309;50.924;4.754;2024-03-29T06:13:42;10.00;99.90
40600;DHT22;26309;50.924;4.754;2024-03-29T06:16:24;10.00;99.90
40600;DHT22;26309;50.924;4.754;2024-03-29T06:19:09;10.10;99.90
40600;DHT22;26309;50.924;4.754;2024-03-29T06:21:35;10.10;99.90
40600;DHT22;26309;50.924;4.754;2024-03-29T06:24:09;10.20;99.90
40600;DHT22;26309;50.924;4.754;2024-03-29T06:26:38;10.30;99.90
40600;DHT22;26309;50.924;4.754;2024-03-29T06:29:04;10.40;99.90
40600;DHT22;26309;50.924;4.754;2024-03-29T06:31:30;10.60;99.90
40600;DHT22;26309;50.924;4.754;2024-03-29T06:33:57;10.60;99.90
40600;DHT22;26309;50.924;4.754;2024-03-29T06:36:24;10.60;99.90
40600;DHT22;26309;50.924;4.754;2024-03-29T06:38:51;10.50;99.90
40600;DHT22;26309;50.924;4.754;2024-03-29T06:41:16;10.60;99.90
40600;DHT22;26309;50.924;4.754;2024-03-29T06:43:43;10.60;99.90
40600;DHT22;26309;50.924;4.754;2024-03-29T06:46:10;10.80;99.90
40600;DHT22;26309;50.924;4.754;2024-03-29T06:48:36;10.70;99.90
40600;DHT22;26309;50.924;4.754;2024-03-29T06:51:03;10.70;99.90
40600;DHT22;26309;50.924;4.754;2024-03-29T06:53:29;10.60;99.90
40600;DHT22;26309;50.924;4.754;2024-03-29T06:55:55;10.70;99.90
40600;DHT22;26309;50.924;4.754;2024-03-29T06:58:24;10.60;99.90
40600;DHT22;26309;50.924;4.754;2024-03-29T07:00:50;10.60;99.90
40600;DHT22;26309;50.924;4.754;2024-03-29T07:03:18;10.70;99.90
40600;DHT22;26309;50.924;4.754;2024-03-29T07:05:47;10.70;99.90
40600;DHT22;26309;50.924;4.754;2024-03-29T07:08:13;10.80;99.90
40600;DHT22;26309;50.924;4.754;2024-03-29T07:10:39;10.90;99.90
40600;DHT22;26309;50.924;4.754;2024-03-29T07:13:08;11.00;99.90
40600;DHT22;26309;50.924;4.754;2024-03-29T07:15:35;11.20;99.90
40600;DHT22;26309;50.924;4.754;2024-03-29T07:18:01;11.40;99.90
40600;DHT22;26309;50.924;4.754;2024-03-29T07:20:28;11.50;99.90
40600;DHT22;26309;50.924;4.754;2024-03-29T07:22:54;11.60;99.90
40600;DHT22;26309;50.924;4.754;2024-03-29T07:25:20;11.40;99.90
40600;DHT22;26309;50.924;4.754;2024-03-29T07:27:46;11.40;99.90
40600;DHT22;26309;50.924;4.754;2024-03-29T07:30:12;11.40;99.90
40600;DHT22;26309;50.924;4.754;2024-03-29T07:32:39;11.40;99.90
40600;DHT22;26309;50.924;4.754;2024-03-29T07:35:05;11.50;99.90
40600;DHT22;26309;50.924;4.754;2024-03-29T07:37:31;11.50;99.90
40600;DHT22;26309;50.924;4.754;2024-03-29T07:39:57;11.50;99.90
40600;DHT22;26309;50.924;4.754;2024-03-29T07:42:23;11.70;99.90
40600;DHT22;26309;50.924;4.754;2024-03-29T07:44:49;11.60;99.90
40600;DHT22;26309;50.924;4.754;2024-03-29T07:47:14;11.60;99.90
40600;DHT22;26309;50.924;4.754;2024-03-29T07:49:41;11.60;99.90
40600;DHT22;26309;50.924;4.754;2024-03-29T07:52:07;11.60;99.90
40600;DHT22;26309;50.924;4.754;2024-03-29T07:54:35;11.60;99.90
40600;DHT22;26309;50.924;4.754;2024-03-29T07:57:00;11.60;99.90
40600;DHT22;26309;50.924;4.754;2024-03-29T07:59:27;11.60;99.90
40600;DHT22;26309;50.924;4.754;2024-03-29T08:01:53;11.70;99.90
40600;DHT22;26309;50.924;4.754;2024-03-29T08:04:20;11.80;99.90
40600;DHT22;26309;50.924;4.754;2024-03-29T08:06:46;11.80;99.90
40600;DHT22;26309;50.924;4.754;2024-03-29T08:09:12;11.80;99.90
40600;DHT22;26309;50.924;4.754;2024-03-29T08:11:40;11.80;99.90
40600;DHT22;26309;50.924;4.754;2024-03-29T08:14:05;11.80;99.90
40600;DHT22;26309;50.924;4.754;2024-03-29T08:16:31;11.90;99.90
40600;DHT22;26309;50.924;4.754;2024-03-29T08:18:57;12.00;99.90
40600;DHT22;26309;50.924;4.754;2024-03-29T08:21:24;12.20;99.90
40600;DHT22;26309;50.924;4.754;2024-03-29T08:23:53;12.20;99.90
40600;DHT22;26309;50.924;4.754;2024-03-29T08:26:21;12.20;99.90
40600;DHT22;26309;50.924;4.754;2024-03-29T08:28:46;12.40;99.90
40600;DHT22;26309;50.924;4.754;2024-03-29T08:31:13;12.50;99.90
40600;DHT22;26309;50.924;4.754;2024-03-29T08:33:39;12.60;99.90
40600;DHT22;26309;50.924;4.754;2024-03-29T08:36:08;12.50;99.90
40600;DHT22;26309;50.924;4.754;2024-03-29T08:38:38;12.50;99.90
40600;DHT22;26309;50.924;4.754;2024-03-29T08:41:08;12.60;99.90
40600;DHT22;26309;50.924;4.754;2024-03-29T08:43:34;12.70;99.90
40600;DHT22;26309;50.924;4.754;2024-03-29T08:46:00;12.90;99.90
40600;DHT22;26309;50.924;4.754;2024-03-29T08:48:27;12.90;99.90
40600;DHT22;26309;50.924;4.754;2024-03-29T08:50:53;12.90;99.90
40600;DHT22;26309;50.924;4.754;2024-03-29T08:53:19;12.90;99.90
40600;DHT22;26309;50.924;4.754;2024-03-29T08:55:46;12.80;99.90
40600;DHT22;26309;50.924;4.754;2024-03-29T08:58:14;13.00;99.90
40600;DHT22;26309;50.924;4.754;2024-03-29T09:00:40;13.10;99.90
40600;DHT22;26309;50.924;4.754;2024-03-29T09:03:06;13.10;99.90
40600;DHT22;26309;50.924;4.754;2024-03-29T09:05:32;13.00;99.90
40600;DHT22;26309;50.924;4.754;2024-03-29T09:07:58;13.10;99.90
40600;DHT22;26309;50.924;4.754;2024-03-29T09:10:25;13.10;99.90
40600;DHT22;26309;50.924;4.754;2024-03-29T09:12:52;13.20;99.90
40600;DHT22;26309;50.924;4.754;2024-03-29T09:15:18;13.40;99.90
40600;DHT22;26309;50.924;4.754;2024-03-29T09:17:45;13.40;99.90
40600;DHT22;26309;50.924;4.754;2024-03-29T09:20:12;13.50;99.90
40600;DHT22;26309;50.924;4.754;2024-03-29T09:22:38;13.70;99.90
40600;DHT22;26309;50.924;4.754;2024-03-29T09:25:05;13.90;99.90
40600;DHT22;26309;50.924;4.754;2024-03-29T09:27:31;14.10;99.90
40600;DHT22;26309;50.924;4.754;2024-03-29T09:30:05;14.20;99.90
40600;DHT22;26309;50.924;4.754;2024-03-29T09:32:32;14.10;99.90
40600;DHT22;26309;50.924;4.754;2024-03-29T09:34:58;14.20;99.90
40600;DHT22;26309;50.924;4.754;2024-03-29T09:37:25;14.30;99.90
40600;DHT22;26309;50.924;4.754;2024-03-29T09:39:51;14.40;99.90
40600;DHT22;26309;50.924;4.754;2024-03-29T09:42:19;14.30;99.90
40600;DHT22;26309;50.924;4.754;2024-03-29T09:44:46;14.30;99.90
40600;DHT22;26309;50.924;4.754;2024-03-29T09:47:15;14.50;99.90
40600;DHT22;26309;50.924;4.754;2024-03-29T09:49:42;14.70;99.90
40600;DHT22;26309;50.924;4.754;2024-03-29T09:52:10;15.00;99.90
40600;DHT22;26309;50.924;4.754;2024-03-29T09:54:37;14.90;99.90
40600;DHT22;26309;50.924;4.754;2024-03-29T09:57:04;14.60;99.90
40600;DHT22;26309;50.924;4.754;2024-03-29T09:59:30;14.50;99.90
40600;DHT22;26309;50.924;4.754;2024-03-29T10:01:58;14.50;99.90
40600;DHT22;26309;50.924;4.754;2024-03-29T10:04:28;14.70;99.90
40600;DHT22;26309;50.924;4.754;2024-03-29T10:06:54;14.60;99.90
40600;DHT22;26309;50.924;4.754;2024-03-29T10:09:22;14.70;99.90
40600;DHT22;26309;50.924;4.754;2024-03-29T10:11:48;14.80;99.90
40600;DHT22;26309;50.924;4.754;2024-03-29T10:14:14;14.70;99.90
40600;DHT22;26309;50.924;4.754;2024-03-29T10:16:40;14.40;99.90
40600;DHT22;26309;50.924;4.754;2024-03-29T10:19:11;14.40;99.90
40600;DHT22;26309;50.924;4.754;2024-03-29T10:21:37;14.60;99.90
40600;DHT22;26309;50.924;4.754;2024-03-29T10:24:14;14.80;99.90
40600;DHT22;26309;50.924;4.754;2024-03-29T10:26:43;15.30;99.90
40600;DHT22;26309;50.924;4.754;2024-03-29T10:29:10;15.60;99.90
40600;DHT22;26309;50.924;4.754;2024-03-29T10:31:36;15.70;99.90
40600;DHT22;26309;50.924;4.754;2024-03-29T10:34:05;15.80;99.90
40600;DHT22;26309;50.924;4.754;2024-03-29T10:36:32;15.50;99.90
40600;DHT22;26309;50.924;4.754;2024-03-29T10:39:11;15.40;99.90
40600;DHT22;26309;50.924;4.754;2024-03-29T10:41:40;15.50;99.90
40600;DHT22;26309;50.924;4.754;2024-03-29T10:44:09;15.60;99.90
40600;DHT22;26309;50.924;4.754;2024-03-29T10:46:37;15.40;99.90
40600;DHT22;26309;50.924;4.754;2024-03-29T10:49:13;15.70;99.90
40600;DHT22;26309;50.924;4.754;2024-03-29T10:51:42;15.90;99.90
40600;DHT22;26309;50.924;4.754;2024-03-29T10:54:10;16.00;99.90
40600;DHT22;26309;50.924;4.754;2024-03-29T10:56:36;16.00;99.90
40600;DHT22;26309;50.924;4.754;2024-03-29T10:59:34;16.00;99.90
40600;DHT22;26309;50.924;4.754;2024-03-29T11:02:10;15.80;99.90
40600;DHT22;26309;50.924;4.754;2024-03-29T11:04:37;15.70;99.90
40600;DHT22;26309;50.924;4.754;2024-03-29T11:07:07;15.70;99.90
40600;DHT22;26309;50.924;4.754;2024-03-29T11:09:37;15.50;99.90
40600;DHT22;26309;50.924;4.754;2024-03-29T11:12:05;15.60;99.90
40600;DHT22;26309;50.924;4.754;2024-03-29T11:14:43;15.60;99.90
40600;DHT22;26309;50.924;4.754;2024-03-29T11:17:10;15.60;99.90
40600;DHT22;26309;50.924;4.754;2024-03-29T11:19:38;15.60;99.90
40600;DHT22;26309;50.924;4.754;2024-03-29T11:22:04;15.50;99.90
40600;DHT22;26309;50.924;4.754;2024-03-29T11:24:32;15.40;99.90
40600;DHT22;26309;50.924;4.754;2024-03-29T11:27:08;15.50;99.90
40600;DHT22;26309;50.924;4.754;2024-03-29T11:29:34;15.80;99.90
40600;DHT22;26309;50.924;4.754;2024-03-29T11:32:06;16.30;99.90
40600;DHT22;26309;50.924;4.754;2024-03-29T11:34:31;16.60;99.90
40600;DHT22;26309;50.924;4.754;2024-03-29T11:37:11;16.80;99.90
40600;DHT22;26309;50.924;4.754;2024-03-29T11:39:37;17.00;99.90
40600;DHT22;26309;50.924;4.754;2024-03-29T11:42:03;17.20;99.90
40600;DHT22;26309;50.924;4.754;2024-03-29T11:44:28;17.50;99.90
40600;DHT22;26309;50.924;4.754;2024-03-29T11:46:58;17.30;99.90
40600;DHT22;26309;50.924;4.754;2024-03-29T11:49:24;17.00;99.90
40600;DHT22;26309;50.924;4.754;2024-03-29T11:51:50;17.00;99.90
40600;DHT22;26309;50.924;4.754;2024-03-29T11:54:16;17.10;99.90
40600;DHT22;26309;50.924;4.754;2024-03-29T11:56:45;17.10;99.90
40600;DHT22;26309;50.924;4.754;2024-03-29T11:59:10;17.10;99.90
40600;DHT22;26309;50.924;4.754;2024-03-29T12:01:36;17.20;99.90
40600;DHT22;26309;50.924;4.754;2024-03-29T12:04:05;17.20;99.90
40600;DHT22;26309;50.924;4.754;2024-03-29T12:06:31;17.20;99.90
40600;DHT22;26309;50.924;4.754;2024-03-29T12:08:57;17.40;99.90
40600;DHT22;26309;50.924;4.754;2024-03-29T12:11:23;17.50;99.90
40600;DHT22;26309;50.924;4.754;2024-03-29T12:13:49;17.20;99.90
40600;DHT22;26309;50.924;4.754;2024-03-29T12:16:15;17.00;99.90
40600;DHT22;26309;50.924;4.754;2024-03-29T12:18:41;17.00;99.90
40600;DHT22;26309;50.924;4.754;2024-03-29T12:21:07;17.20;99.90
40600;DHT22;26309;50.924;4.754;2024-03-29T12:23:35;17.20;99.90
40600;DHT22;26309;50.924;4.754;2024-03-29T12:26:01;17.10;99.90
40600;DHT22;26309;50.924;4.754;2024-03-29T12:28:27;17.20;99.90
40600;DHT22;26309;50.924;4.754;2024-03-29T12:30:53;17.60;99.90
40600;DHT22;26309;50.924;4.754;2024-03-29T12:33:22;17.70;99.90
40600;DHT22;26309;50.924;4.754;2024-03-29T12:35:51;18.00;99.90
40600;DHT22;26309;50.924;4.754;2024-03-29T12:38:22;18.20;99.90
40600;DHT22;26309;50.924;4.754;2024-03-29T12:40:49;18.40;99.90
40600;DHT22;26309;50.924;4.754;2024-03-29T12:43:20;18.50;99.30
40600;DHT22;26309;50.924;4.754;2024-03-29T12:45:46;18.40;98.70
40600;DHT22;26309;50.924;4.754;2024-03-29T12:48:17;18.50;99.40
40600;DHT22;26309;50.924;4.754;2024-03-29T12:50:44;18.60;99.80
40600;DHT22;26309;50.924;4.754;2024-03-29T12:53:12;18.80;99.50
40600;DHT22;26309;50.924;4.754;2024-03-29T12:55:40;18.80;98.30
40600;DHT22;26309;50.924;4.754;2024-03-29T12:58:09;18.50;99.00
40600;DHT22;26309;50.924;4.754;2024-03-29T13:00:37;18.50;99.30
40600;DHT22;26309;50.924;4.754;2024-03-29T13:03:04;18.50;99.00
40600;DHT22;26309;50.924;4.754;2024-03-29T13:05:30;18.50;98.60
40600;DHT22;26309;50.924;4.754;2024-03-29T13:08:04;18.60;97.50
40600;DHT22;26309;50.924;4.754;2024-03-29T13:10:30;18.80;98.20
40600;DHT22;26309;50.924;4.754;2024-03-29T13:12:56;18.80;98.50
40600;DHT22;26309;50.924;4.754;2024-03-29T13:15:23;18.70;97.30
40600;DHT22;26309;50.924;4.754;2024-03-29T13:17:51;18.80;98.10
40600;DHT22;26309;50.924;4.754;2024-03-29T13:20:18;18.70;96.40
40600;DHT22;26309;50.924;4.754;2024-03-29T13:22:45;18.60;97.20
40600;DHT22;26309;50.924;4.754;2024-03-29T13:25:19;18.60;97.40
40600;DHT22;26309;50.924;4.754;2024-03-29T13:27:50;18.60;97.90
40600;DHT22;26309;50.924;4.754;2024-03-29T13:30:20;19.00;97.60
40600;DHT22;26309;50.924;4.754;2024-03-29T13:32:46;19.30;97.20
40600;DHT22;26309;50.924;4.754;2024-03-29T13:35:12;19.70;97.40
40600;DHT22;26309;50.924;4.754;2024-03-29T13:37:39;19.60;96.60
40600;DHT22;26309;50.924;4.754;2024-03-29T13:40:09;19.10;96.00
40600;DHT22;26309;50.924;4.754;2024-03-29T13:42:36;18.80;97.40
40600;DHT22;26309;50.924;4.754;2024-03-29T13:45:02;18.50;97.00
40600;DHT22;26309;50.924;4.754;2024-03-29T13:47:28;18.40;98.80
40600;DHT22;26309;50.924;4.754;2024-03-29T13:49:54;18.60;97.90
40600;DHT22;26309;50.924;4.754;2024-03-29T13:52:22;18.60;98.10
40600;DHT22;26309;50.924;4.754;2024-03-29T13:54:48;18.60;98.10
40600;DHT22;26309;50.924;4.754;2024-03-29T13:57:16;18.30;98.70
40600;DHT22;26309;50.924;4.754;2024-03-29T13:59:43;18.40;97.90
40600;DHT22;26309;50.924;4.754;2024-03-29T14:02:14;18.50;98.30
40600;DHT22;26309;50.924;4.754;2024-03-29T14:04:42;18.60;98.00
40600;DHT22;26309;50.924;4.754;2024-03-29T14:07:09;18.60;96.90
40600;DHT22;26309;50.924;4.754;2024-03-29T14:09:37;18.60;98.00
40600;DHT22;26309;50.924;4.754;2024-03-29T14:12:04;18.40;97.10
40600;DHT22;26309;50.924;4.754;2024-03-29T14:14:30;18.30;98.10
40600;DHT22;26309;50.924;4.754;2024-03-29T14:16:56;18.40;96.90
40600;DHT22;26309;50.924;4.754;2024-03-29T14:19:22;18.20;97.00
40600;DHT22;26309;50.924;4.754;2024-03-29T14:21:48;17.90;97.70
40600;DHT22;26309;50.924;4.754;2024-03-29T14:24:14;17.80;98.30
40600;DHT22;26309;50.924;4.754;2024-03-29T14:26:42;17.90;98.60
40600;DHT22;26309;50.924;4.754;2024-03-29T14:29:08;18.00;97.20
40600;DHT22;26309;50.924;4.754;2024-03-29T14:31:37;18.10;98.10
40600;DHT22;26309;50.924;4.754;2024-03-29T14:34:03;18.10;97.70
40600;DHT22;26309;50.924;4.754;2024-03-29T14:36:29;18.00;98.20
40600;DHT22;26309;50.924;4.754;2024-03-29T14:38:58;18.00;97.60
40600;DHT22;26309;50.924;4.754;2024-03-29T14:41:26;18.10;98.30
40600;DHT22;26309;50.924;4.754;2024-03-29T14:43:52;18.20;97.90
40600;DHT22;26309;50.924;4.754;2024-03-29T14:46:19;18.10;97.50
40600;DHT22;26309;50.924;4.754;2024-03-29T14:48:47;18.10;97.70
40600;DHT22;26309;50.924;4.754;2024-03-29T14:51:13;17.70;98.50
40600;DHT22;26309;50.924;4.754;2024-03-29T14:53:38;17.80;98.80
40600;DHT22;26309;50.924;4.754;2024-03-29T14:56:04;17.70;99.50
40600;DHT22;26309;50.924;4.754;2024-03-29T14:58:30;17.80;99.10
40600;DHT22;26309;50.924;4.754;2024-03-29T15:00:57;18.10;98.80
40600;DHT22;26309;50.924;4.754;2024-03-29T15:03:22;18.40;98.10
40600;DHT22;26309;50.924;4.754;2024-03-29T15:05:50;18.30;98.40
40600;DHT22;26309;50.924;4.754;2024-03-29T15:08:15;18.40;98.00
40600;DHT22;26309;50.924;4.754;2024-03-29T15:10:44;18.60;98.60
40600;DHT22;26309;50.924;4.754;2024-03-29T15:13:09;19.10;97.40
40600;DHT22;26309;50.924;4.754;2024-03-29T15:15:35;19.40;97.00
40600;DHT22;26309;50.924;4.754;2024-03-29T15:18:05;19.40;97.10
40600;DHT22;26309;50.924;4.754;2024-03-29T15:20:34;19.50;97.50
40600;DHT22;26309;50.924;4.754;2024-03-29T15:23:00;19.40;97.70
40600;DHT22;26309;50.924;4.754;2024-03-29T15:25:26;20.10;97.70
40600;DHT22;26309;50.924;4.754;2024-03-29T15:27:51;20.30;96.20
40600;DHT22;26309;50.924;4.754;2024-03-29T15:30:35;20.20;95.80
40600;DHT22;26309;50.924;4.754;2024-03-29T15:33:07;20.00;95.00
40600;DHT22;26309;50.924;4.754;2024-03-29T15:35:33;19.50;95.40